Time;durP1;ratioP1;P1;durP2;ratioP2;P2;SDS_P1;SDS_P2;PMS_P1;PMS_P2;Temp;Humidity;BMP_temperature;BMP_pressure;BME280_temperature;BME280_humidity;BME280_pressure;Samples;Min_cycle;Max_cycle;Signal;HPM_P1;HPM_P2
2023/05/22 00:00:06;;;;;;;10.60;4.23;;;13.40;99.90;;;;;;5013223;28;20744;-70
2023/05/22 00:02:32;;;;;;;8.73;5.47;;;13.40;99.90;;;;;;5026902;28;20166;-70
2023/05/22 00:04:59;;;;;;;10.60;4.47;;;13.40;99.90;;;;;;5033719;28;20419;-70
2023/05/22 00:07:26;;;;;;;9.30;6.00;;;13.30;99.90;;;;;;5012333;28;20425;-70
2023/05/22 00:09:52;;;;;;;11.57;5.60;;;13.30;99.90;;;;;;5025570;28;20422;-70
2023/05/22 00:12:18;;;;;;;9.80;5.07;;;13.20;99.90;;;;;;5011764;28;20426;-70
2023/05/22 00:14:43;;;;;;;9.10;5.50;;;13.20;99.90;;;;;;5015220;28;20774;-70
2023/05/22 00:17:13;;;;;;;12.90;5.23;;;13.20;99.90;;;;;;5032030;28;20300;-70
2023/05/22 00:19:39;;;;;;;6.30;4.37;;;13.10;99.90;;;;;;5037009;28;20194;-70
2023/05/22 00:22:05;;;;;;;10.83;5.90;;;13.20;99.90;;;;;;5026709;28;20501;-70
2023/05/22 00:24:31;;;;;;;13.10;5.23;;;13.20;99.90;;;;;;5014242;28;20621;-70
2023/05/22 00:26:56;;;;;;;13.83;5.50;;;13.10;99.90;;;;;;5012073;28;20241;-70
2023/05/22 00:29:22;;;;;;;9.20;4.87;;;13.10;99.90;;;;;;5024769;28;20744;-70
2023/05/22 00:31:48;;;;;;;8.80;5.27;;;12.90;99.90;;;;;;5011726;28;20190;-70
2023/05/22 00:34:13;;;;;;;10.60;5.93;;;12.90;99.90;;;;;;5026810;28;20192;-70
2023/05/22 00:36:39;;;;;;;10.83;5.63;;;12.90;99.90;;;;;;5031741;28;20240;-70
2023/05/22 00:39:05;;;;;;;11.37;4.30;;;12.90;99.90;;;;;;5028224;28;20182;-70
2023/05/22 00:41:32;;;;;;;9.37;5.07;;;12.80;99.90;;;;;;5011271;28;20190;-70
2023/05/22 00:43:59;;;;;;;9.53;4.37;;;12.70;99.90;;;;;;5013214;28;20183;-70
2023/05/22 00:46:25;;;;;;;7.93;4.67;;;12.80;99.90;;;;;;5031399;28;20417;-70
2023/05/22 00:48:51;;;;;;;10.47;4.87;;;12.70;99.90;;;;;;5018219;28;20420;-70
2023/05/22 00:51:21;;;;;;;8.50;5.40;;;12.70;99.90;;;;;;5022236;28;20270;-70
2023/05/22 00:53:49;;;;;;;10.73;5.37;;;12.70;99.90;;;;;;5011398;28;20426;-70
2023/05/22 00:56:16;;;;;;;11.53;5.13;;;12.70;99.90;;;;;;5011353;28;20446;-70
2023/05/22 00:58:42;;;;;;;10.13;4.70;;;12.70;99.90;;;;;;5012069;28;20513;-70
2023/05/22 01:01:10;;;;;;;8.50;5.13;;;12.60;99.90;;;;;;5011021;28;21028;-70
2023/05/22 01:03:43;;;;;;;8.27;4.43;;;12.60;99.90;;;;;;5038498;28;20199;-70
2023/05/22 01:06:13;;;;;;;10.47;4.90;;;12.50;99.90;;;;;;5026819;28;20418;-70
2023/05/22 01:08:40;;;;;;;7.90;4.60;;;12.60;99.90;;;;;;5015720;28;20779;-70
2023/05/22 01:11:24;;;;;;;14.50;5.10;;;12.50;99.90;;;;;;5020078;28;20449;-70
2023/05/22 01:14:09;;;;;;;8.50;5.00;;;12.50;99.90;;;;;;5010920;28;20410;-70
2023/05/22 01:17:22;;;;;;;11.73;6.27;;;12.50;99.90;;;;;;5026808;28;20461;-70
2023/05/22 01:20:19;;;;;;;7.93;4.80;;;12.40;99.90;;;;;;5003144;28;20422;-70
2023/05/22 01:23:18;;;;;;;8.70;4.93;;;12.40;99.90;;;;;;4984303;28;20458;-70
2023/05/22 01:25:48;;;;;;;8.43;4.80;;;12.40;99.90;;;;;;5023101;28;20425;-70
2023/05/22 01:28:39;;;;;;;11.33;5.17;;;12.40;99.90;;;;;;5024466;28;20946;-70
2023/05/22 01:31:10;;;;;;;9.73;4.40;;;12.30;99.90;;;;;;5013934;28;20514;-70
2023/05/22 01:33:56;;;;;;;8.13;5.03;;;12.30;99.90;;;;;;5010482;28;20421;-70
2023/05/22 01:36:27;;;;;;;11.17;5.70;;;12.30;99.90;;;;;;5017955;28;20453;-70
2023/05/22 01:38:53;;;;;;;10.50;5.53;;;12.40;99.90;;;;;;5029927;28;20463;-70
2023/05/22 01:41:20;;;;;;;7.90;4.70;;;12.30;99.90;;;;;;5009674;28;20981;-70
2023/05/22 01:43:46;;;;;;;13.10;6.17;;;12.20;99.90;;;;;;5010790;28;20414;-70
2023/05/22 01:46:12;;;;;;;10.23;5.10;;;12.20;99.90;;;;;;5041853;23;20425;-70
2023/05/22 01:48:37;;;;;;;10.57;4.70;;;12.20;99.90;;;;;;5030477;28;20444;-70
2023/05/22 01:51:42;;;;;;;8.73;4.83;;;12.20;99.90;;;;;;5038567;28;20189;-70
2023/05/22 01:54:26;;;;;;;8.50;4.40;;;12.20;99.90;;;;;;5036451;28;20216;-70
2023/05/22 01:56:58;;;;;;;10.57;6.13;;;12.20;99.90;;;;;;5050595;28;20980;-70
2023/05/22 01:59:36;;;;;;;11.70;5.37;;;12.20;99.90;;;;;;5050272;28;20432;-70
2023/05/22 02:02:05;;;;;;;11.10;4.90;;;12.20;99.90;;;;;;5042057;28;20433;-70
2023/05/22 02:04:34;;;;;;;10.40;4.73;;;12.20;99.90;;;;;;5037802;28;20421;-70
2023/05/22 02:07:01;;;;;;;12.00;5.70;;;12.20;99.90;;;;;;5049244;28;20451;-70
2023/05/22 02:09:29;;;;;;;9.30;5.67;;;12.30;99.90;;;;;;5037575;28;20432;-70
2023/05/22 02:11:57;;;;;;;9.13;5.20;;;12.30;99.90;;;;;;5042983;28;20417;-70
2023/05/22 02:14:24;;;;;;;8.17;4.60;;;12.30;99.90;;;;;;5038034;28;20425;-70
2023/05/22 02:16:50;;;;;;;12.13;6.07;;;12.40;99.90;;;;;;5043708;28;20464;-70
2023/05/22 02:19:15;;;;;;;18.03;5.70;;;12.30;99.90;;;;;;5030295;28;21177;-70
2023/05/22 02:21:41;;;;;;;13.50;5.73;;;12.40;99.90;;;;;;5045699;28;20194;-70
2023/05/22 02:24:07;;;;;;;7.63;5.10;;;12.40;99.90;;;;;;5053004;28;20188;-70
2023/05/22 02:26:32;;;;;;;10.43;5.17;;;12.50;99.90;;;;;;5054052;28;20185;-70
2023/05/22 02:28:58;;;;;;;15.60;5.10;;;12.50;99.90;;;;;;5053424;28;20185;-70
2023/05/22 02:31:24;;;;;;;9.47;4.53;;;12.40;99.90;;;;;;5053743;28;20182;-70
2023/05/22 02:33:49;;;;;;;8.70;4.90;;;12.50;99.90;;;;;;5053322;28;20182;-70
2023/05/22 02:36:15;;;;;;;10.43;5.07;;;12.40;99.90;;;;;;5047826;28;20689;-70
2023/05/22 02:38:40;;;;;;;9.93;5.70;;;12.50;99.90;;;;;;5033996;28;20206;-70
2023/05/22 02:41:06;;;;;;;10.03;5.60;;;12.60;99.90;;;;;;5052379;28;20186;-70
2023/05/22 02:43:32;;;;;;;10.80;5.53;;;12.60;99.90;;;;;;5029762;28;20237;-70
2023/05/22 02:45:58;;;;;;;10.40;5.00;;;12.60;99.90;;;;;;5037758;28;20436;-71
2023/05/22 02:48:23;;;;;;;7.13;4.97;;;12.70;99.90;;;;;;5053934;28;20197;-70
2023/05/22 02:50:49;;;;;;;8.50;5.07;;;12.70;99.90;;;;;;5048232;28;20186;-70
2023/05/22 02:53:15;;;;;;;10.47;6.47;;;12.70;99.90;;;;;;5045065;28;20200;-70
2023/05/22 02:55:42;;;;;;;14.17;6.50;;;12.70;99.90;;;;;;5053235;28;20186;-70
2023/05/22 02:58:11;;;;;;;11.37;7.20;;;12.70;99.90;;;;;;5053242;28;20487;-70
2023/05/22 03:00:37;;;;;;;15.30;7.17;;;12.60;99.90;;;;;;5053224;28;20509;-70
2023/05/22 03:03:03;;;;;;;12.57;7.17;;;12.70;99.90;;;;;;5037383;28;20455;-70
2023/05/22 03:05:30;;;;;;;8.33;4.80;;;12.70;99.90;;;;;;5037801;28;20444;-70
2023/05/22 03:07:56;;;;;;;13.60;5.23;;;12.80;99.90;;;;;;5053431;28;20471;-70
2023/05/22 03:10:22;;;;;;;15.07;5.90;;;12.80;99.90;;;;;;5052951;28;20424;-70
2023/05/22 03:12:47;;;;;;;10.43;5.20;;;12.80;99.90;;;;;;5052917;28;20214;-70
2023/05/22 03:15:13;;;;;;;13.97;5.77;;;12.90;99.90;;;;;;5040846;28;20187;-70
2023/05/22 03:17:38;;;;;;;8.00;5.13;;;12.90;99.90;;;;;;5044729;28;20201;-70
2023/05/22 03:20:05;;;;;;;11.90;6.30;;;12.90;99.90;;;;;;5038539;28;20181;-70
2023/05/22 03:22:31;;;;;;;13.93;5.77;;;12.90;99.90;;;;;;5045294;28;20534;-70
2023/05/22 03:24:57;;;;;;;7.57;5.37;;;12.90;99.90;;;;;;5052575;28;20446;-70
2023/05/22 03:27:22;;;;;;;10.30;4.97;;;12.80;99.90;;;;;;5040199;28;20190;-70
2023/05/22 03:29:48;;;;;;;11.30;6.00;;;12.80;99.90;;;;;;5045753;28;20761;-70
2023/05/22 03:32:13;;;;;;;11.43;5.77;;;12.80;99.90;;;;;;5045448;28;20627;-70
2023/05/22 03:34:39;;;;;;;13.57;6.50;;;12.80;99.90;;;;;;5052293;28;20257;-70
2023/05/22 03:37:05;;;;;;;13.80;6.40;;;12.70;99.90;;;;;;5052799;28;20630;-70
2023/05/22 03:39:31;;;;;;;8.87;4.83;;;12.60;99.90;;;;;;5046482;28;20413;-70
2023/05/22 03:41:56;;;;;;;10.67;5.00;;;12.60;99.90;;;;;;5044513;28;20177;-70
2023/05/22 03:44:22;;;;;;;6.60;4.10;;;12.50;99.90;;;;;;5033858;28;20218;-70
2023/05/22 03:46:47;;;;;;;9.17;4.87;;;12.40;99.90;;;;;;5044567;28;20202;-70
2023/05/22 03:49:13;;;;;;;9.67;5.10;;;12.40;99.90;;;;;;5044598;28;20201;-70
2023/05/22 03:51:39;;;;;;;11.97;6.50;;;12.40;99.90;;;;;;5051763;28;20228;-70
2023/05/22 03:54:04;;;;;;;10.10;5.77;;;12.40;99.90;;;;;;5051963;28;20189;-70
2023/05/22 03:56:30;;;;;;;10.87;6.47;;;12.40;99.90;;;;;;5052092;28;20337;-70
2023/05/22 03:58:55;;;;;;;11.07;5.80;;;12.30;99.90;;;;;;5045807;28;20681;-70
2023/05/22 04:01:22;;;;;;;10.90;5.77;;;12.40;99.90;;;;;;5042724;28;20256;-70
2023/05/22 04:03:47;;;;;;;8.20;5.37;;;12.40;99.90;;;;;;5037411;28;20174;-70
2023/05/22 04:06:13;;;;;;;10.93;6.00;;;12.40;99.90;;;;;;5045929;28;20478;-70
2023/05/22 04:08:39;;;;;;;13.33;6.43;;;12.30;99.90;;;;;;5025440;28;20284;-70
2023/05/22 04:11:05;;;;;;;12.80;5.50;;;12.40;99.90;;;;;;5039402;28;20181;-70
2023/05/22 04:13:31;;;;;;;8.63;4.80;;;12.30;99.90;;;;;;5044764;28;20194;-70
2023/05/22 04:15:57;;;;;;;13.20;5.70;;;12.30;99.90;;;;;;5043975;28;20228;-70
2023/05/22 04:18:23;;;;;;;9.80;5.87;;;12.50;99.90;;;;;;5045897;28;20945;-70
2023/05/22 04:20:50;;;;;;;14.43;6.37;;;12.50;99.90;;;;;;5037189;28;20257;-70
2023/05/22 04:23:16;;;;;;;9.77;5.80;;;12.60;99.90;;;;;;5042643;28;20197;-71
2023/05/22 04:25:42;;;;;;;9.70;5.83;;;12.60;99.90;;;;;;5031666;28;20413;-70
2023/05/22 04:28:08;;;;;;;13.70;6.27;;;12.70;99.90;;;;;;5050274;28;20661;-71
2023/05/22 04:30:35;;;;;;;11.20;5.93;;;12.90;99.90;;;;;;5051035;28;20177;-71
2023/05/22 04:33:04;;;;;;;10.30;5.80;;;12.90;99.90;;;;;;5050996;28;20197;-70
2023/05/22 04:35:30;;;;;;;10.03;5.50;;;12.90;99.90;;;;;;5050883;28;20435;-70
2023/05/22 04:38:02;;;;;;;21.30;6.23;;;12.90;99.90;;;;;;5051058;28;20503;-70
2023/05/22 04:40:29;;;;;;;12.00;6.57;;;13.00;99.90;;;;;;5051254;28;20535;-71
2023/05/22 04:42:58;;;;;;;11.23;5.50;;;13.10;99.90;;;;;;5043398;28;20462;-70
2023/05/22 04:45:24;;;;;;;11.27;5.60;;;13.10;99.90;;;;;;5032653;28;20793;-70
2023/05/22 04:47:51;;;;;;;14.47;7.00;;;13.20;99.90;;;;;;5050159;28;20440;-71
2023/05/22 04:50:17;;;;;;;12.60;5.90;;;13.20;99.90;;;;;;5043933;28;20654;-71
2023/05/22 04:52:43;;;;;;;15.80;6.33;;;13.20;99.90;;;;;;5042393;28;20504;-71
2023/05/22 04:55:10;;;;;;;9.90;5.70;;;13.30;99.90;;;;;;5044735;28;20260;-71
2023/05/22 04:57:37;;;;;;;10.20;5.20;;;13.30;99.90;;;;;;5050150;28;20228;-71
2023/05/22 05:00:04;;;;;;;14.00;6.50;;;13.30;99.90;;;;;;5049869;28;20838;-71
2023/05/22 05:02:29;;;;;;;14.77;7.17;;;13.40;99.90;;;;;;5039383;28;20784;-71
2023/05/22 05:04:55;;;;;;;15.40;6.20;;;13.40;99.90;;;;;;5039335;28;20424;-71
2023/05/22 05:07:22;;;;;;;14.80;6.13;;;13.50;99.90;;;;;;5044458;28;20182;-71
2023/05/22 05:09:48;;;;;;;12.63;5.90;;;13.60;99.90;;;;;;5045843;28;20178;-71
2023/05/22 05:12:14;;;;;;;11.33;6.33;;;13.70;99.90;;;;;;5049334;28;20439;-71
2023/05/22 05:14:40;;;;;;;12.40;6.50;;;13.80;99.90;;;;;;5043858;28;20186;-71
2023/05/22 05:17:06;;;;;;;12.73;5.83;;;13.90;99.90;;;;;;5038637;28;20791;-71
2023/05/22 05:19:33;;;;;;;12.00;6.03;;;14.10;99.90;;;;;;5035541;28;20316;-72
2023/05/22 05:21:58;;;;;;;11.37;6.30;;;14.20;99.90;;;;;;5033349;28;20277;-71
2023/05/22 05:24:24;;;;;;;9.80;5.90;;;14.30;99.90;;;;;;5045157;28;20420;-71
2023/05/22 05:26:50;;;;;;;28.00;5.73;;;14.40;99.90;;;;;;5049980;28;20652;-71
2023/05/22 05:29:15;;;;;;;8.30;5.93;;;14.50;99.90;;;;;;5033628;28;20186;-71
2023/05/22 05:31:41;;;;;;;10.57;6.20;;;14.60;99.90;;;;;;5037888;28;20254;-71
2023/05/22 05:34:07;;;;;;;11.17;5.60;;;14.60;99.90;;;;;;5049250;28;20184;-71
2023/05/22 05:36:33;;;;;;;8.43;5.10;;;14.70;99.90;;;;;;5049841;28;20205;-71
2023/05/22 05:38:59;;;;;;;14.23;6.40;;;14.70;99.90;;;;;;5048532;28;20690;-72
2023/05/22 05:41:25;;;;;;;17.80;6.90;;;14.80;99.90;;;;;;5029794;28;20281;-71
2023/05/22 05:43:51;;;;;;;12.50;6.53;;;14.90;99.90;;;;;;5043569;28;20565;-71
2023/05/22 05:46:18;;;;;;;13.90;6.90;;;15.00;99.90;;;;;;4999467;28;1097117;-71
2023/05/22 05:48:44;;;;;;;15.93;6.63;;;15.00;99.90;;;;;;5049387;28;20576;-71
2023/05/22 05:51:09;;;;;;;15.83;6.90;;;15.10;99.90;;;;;;5042178;28;20413;-71
2023/05/22 05:53:35;;;;;;;14.17;7.23;;;15.20;99.90;;;;;;5043006;28;20868;-71
2023/05/22 05:56:05;;;;;;;10.73;6.57;;;15.30;99.90;;;;;;5037516;28;20185;-74
2023/05/22 05:58:31;;;;;;;16.70;5.87;;;15.30;99.90;;;;;;5041958;28;20515;-70
2023/05/22 06:00:56;;;;;;;9.73;5.83;;;15.40;99.90;;;;;;5054445;28;20420;-70
2023/05/22 06:03:24;;;;;;;16.93;7.13;;;15.50;99.90;;;;;;5038096;28;20661;-70
2023/05/22 06:05:50;;;;;;;14.17;7.67;;;15.50;99.90;;;;;;5047926;28;20265;-71
2023/05/22 06:08:15;;;;;;;10.63;6.50;;;15.60;99.90;;;;;;5053864;28;20960;-71
2023/05/22 06:10:41;;;;;;;9.00;6.10;;;15.70;99.90;;;;;;5043920;28;20226;-71
2023/05/22 06:13:06;;;;;;;12.47;6.80;;;15.80;99.90;;;;;;5036187;28;20191;-71
2023/05/22 06:15:33;;;;;;;10.33;6.00;;;15.90;99.90;;;;;;5048810;28;20234;-71
2023/05/22 06:17:58;;;;;;;17.80;6.10;;;16.00;99.90;;;;;;5051879;28;20373;-71
2023/05/22 06:20:24;;;;;;;12.60;5.67;;;16.00;99.90;;;;;;5039620;28;20517;-71
2023/05/22 06:22:50;;;;;;;9.03;5.40;;;16.10;99.90;;;;;;5035897;28;20543;-71
2023/05/22 06:25:16;;;;;;;10.50;5.80;;;16.10;99.90;;;;;;5029061;28;20187;-71
2023/05/22 06:27:42;;;;;;;9.60;5.37;;;16.10;99.90;;;;;;5025966;28;20417;-71
2023/05/22 06:30:08;;;;;;;14.70;6.20;;;16.10;99.90;;;;;;5027078;28;20190;-70
2023/05/22 06:32:34;;;;;;;12.63;6.30;;;16.10;99.90;;;;;;5049047;28;20221;-71
2023/05/22 06:35:00;;;;;;;9.03;5.13;;;16.10;99.90;;;;;;5044363;28;20821;-71
2023/05/22 06:37:26;;;;;;;9.07;5.60;;;16.10;99.90;;;;;;5049340;28;20198;-71
2023/05/22 06:39:51;;;;;;;8.00;5.27;;;16.10;99.90;;;;;;5053301;28;20428;-71
2023/05/22 06:42:17;;;;;;;7.83;4.53;;;16.10;99.90;;;;;;5051192;28;20210;-71
2023/05/22 06:44:42;;;;;;;11.03;5.57;;;16.00;99.90;;;;;;5034149;28;20805;-71
2023/05/22 06:47:08;;;;;;;8.70;4.90;;;16.10;99.90;;;;;;5037575;28;20241;-71
2023/05/22 06:49:34;;;;;;;13.40;5.33;;;16.10;99.90;;;;;;5031592;28;20254;-70
2023/05/22 06:51:59;;;;;;;11.47;4.17;;;16.10;99.90;;;;;;5053206;28;20182;-71
2023/05/22 06:54:27;;;;;;;10.00;4.50;;;16.10;99.90;;;;;;5052819;28;20197;-71
2023/05/22 06:56:56;;;;;;;8.83;4.90;;;16.20;99.90;;;;;;5053261;28;20205;-71
2023/05/22 06:59:22;;;;;;;8.40;4.93;;;16.20;99.90;;;;;;5037834;28;20473;-71
2023/05/22 07:01:47;;;;;;;13.30;5.33;;;16.20;99.90;;;;;;5048308;28;20784;-70
2023/05/22 07:04:14;;;;;;;10.20;4.03;;;16.30;99.90;;;;;;5040483;28;20181;-71
2023/05/22 07:06:40;;;;;;;11.33;4.63;;;16.30;99.90;;;;;;5045918;28;20274;-71
2023/05/22 07:09:07;;;;;;;13.67;5.57;;;16.40;99.90;;;;;;5027182;28;20440;-71
2023/05/22 07:11:32;;;;;;;10.70;6.10;;;16.40;99.90;;;;;;5048964;28;20507;-70
2023/05/22 07:13:59;;;;;;;10.00;5.10;;;16.40;99.90;;;;;;5047779;28;20518;-71
2023/05/22 07:16:25;;;;;;;6.83;4.50;;;16.50;99.90;;;;;;5048868;28;20190;-71
2023/05/22 07:18:51;;;;;;;9.63;5.13;;;16.50;99.90;;;;;;5043417;28;20528;-71
2023/05/22 07:21:17;;;;;;;10.43;4.80;;;16.60;99.90;;;;;;5038082;28;20469;-71
2023/05/22 07:23:43;;;;;;;9.70;5.97;;;16.60;99.90;;;;;;5042176;28;20439;-71
2023/05/22 07:26:08;;;;;;;11.27;5.83;;;16.70;99.90;;;;;;5052947;28;20260;-71
2023/05/22 07:28:34;;;;;;;11.60;6.07;;;16.80;99.90;;;;;;5052999;28;20247;-71
2023/05/22 07:31:00;;;;;;;10.97;5.60;;;17.00;99.90;;;;;;5039438;28;20186;-71
2023/05/22 07:33:26;;;;;;;9.63;6.00;;;17.10;99.90;;;;;;5042976;28;20289;-71
2023/05/22 07:35:52;;;;;;;10.90;5.80;;;17.20;99.90;;;;;;5047987;28;20503;-71
2023/05/22 07:38:17;;;;;;;9.77;5.10;;;17.30;99.90;;;;;;5052360;28;20241;-71
2023/05/22 07:40:43;;;;;;;8.70;4.77;;;17.50;99.90;;;;;;5036300;28;20222;-70
2023/05/22 07:43:09;;;;;;;10.97;5.57;;;17.70;99.90;;;;;;5034919;28;20186;-71
2023/05/22 07:45:34;;;;;;;9.70;4.33;;;17.90;99.90;;;;;;5030871;28;20253;-71
2023/05/22 07:48:02;;;;;;;10.57;5.87;;;18.00;99.90;;;;;;5031189;28;20233;-71
2023/05/22 07:50:29;;;;;;;9.77;5.63;;;18.30;99.90;;;;;;5031414;28;20205;-71
2023/05/22 07:52:55;;;;;;;11.53;5.50;;;18.50;99.90;;;;;;5022085;28;20457;-71
2023/05/22 07:55:21;;;;;;;10.87;5.70;;;18.80;99.90;;;;;;5029755;28;20497;-71
2023/05/22 07:57:46;;;;;;;10.03;5.80;;;19.10;99.90;;;;;;5025486;28;20958;-71
2023/05/22 08:00:13;;;;;;;8.30;4.50;;;19.20;99.90;;;;;;5030186;28;20604;-71
2023/05/22 08:02:42;;;;;;;8.33;5.23;;;19.80;99.90;;;;;;5024714;28;20180;-71
2023/05/22 08:05:08;;;;;;;11.37;4.67;;;20.40;99.90;;;;;;5025745;28;20420;-72
2023/05/22 08:07:34;;;;;;;11.73;5.10;;;21.00;99.90;;;;;;5023802;28;20427;-72
2023/05/22 08:10:11;;;;;;;9.30;4.83;;;21.90;99.90;;;;;;5026509;28;20434;-69
2023/05/22 08:12:37;;;;;;;14.30;6.57;;;22.70;99.90;;;;;;5019214;28;20420;-70
2023/05/22 08:15:03;;;;;;;12.60;5.87;;;23.30;99.90;;;;;;5023236;28;20512;-71
2023/05/22 08:17:29;;;;;;;4.83;3.63;;;23.80;98.90;;;;;;5027197;28;20261;-70
2023/05/22 08:19:55;;;;;;;10.83;5.30;;;23.80;98.20;;;;;;5025708;28;20814;-71
2023/05/22 08:22:20;;;;;;;10.90;5.00;;;23.50;97.80;;;;;;5024440;28;20682;-70
2023/05/22 08:24:46;;;;;;;8.30;4.90;;;23.50;98.40;;;;;;5024106;28;20630;-71
2023/05/22 08:27:11;;;;;;;7.50;5.23;;;23.60;98.20;;;;;;5022451;28;20514;-71
2023/05/22 08:29:37;;;;;;;11.23;5.13;;;24.30;97.10;;;;;;5026159;28;20670;-70
2023/05/22 08:32:03;;;;;;;8.95;4.50;;;25.10;95.70;;;;;;5022245;28;20178;-71
2023/05/22 08:34:28;;;;;;;9.30;4.88;;;25.80;93.80;;;;;;5025740;28;20888;-71
2023/05/22 08:36:54;;;;;;;7.85;4.88;;;25.60;93.80;;;;;;5023835;28;21511;-70
2023/05/22 08:39:20;;;;;;;8.70;4.45;;;25.20;94.20;;;;;;5024015;28;20174;-70
2023/05/22 08:41:46;;;;;;;9.15;4.20;;;25.20;94.60;;;;;;5021390;28;20253;-70
2023/05/22 08:44:12;;;;;;;7.78;4.07;;;25.30;94.30;;;;;;5027939;28;20910;-71
2023/05/22 08:46:42;;;;;;;7.22;3.67;;;25.10;94.10;;;;;;5024477;28;20201;-71
2023/05/22 08:49:08;;;;;;;8.05;4.22;;;25.20;93.90;;;;;;5028611;28;20184;-71
2023/05/22 08:51:38;;;;;;;6.38;3.72;;;25.40;94.30;;;;;;5050589;28;20177;-70
2023/05/22 08:54:08;;;;;;;8.07;4.60;;;25.40;93.70;;;;;;5050024;28;20173;-70
2023/05/22 08:56:38;;;;;;;7.80;4.43;;;25.30;94.70;;;;;;5041710;28;20200;-81
2023/05/22 08:59:05;;;;;;;11.43;5.40;;;25.70;92.60;;;;;;5031539;28;20181;-81
2023/05/22 09:01:31;;;;;;;6.88;4.53;;;25.80;92.10;;;;;;5043005;28;20887;-81
2023/05/22 09:04:01;;;;;;;11.32;5.43;;;25.70;91.70;;;;;;5039628;28;20653;-70
2023/05/22 09:06:28;;;;;;;9.20;4.07;;;25.20;92.20;;;;;;5038286;28;20256;-70
2023/05/22 09:09:02;;;;;;;11.63;5.57;;;24.90;93.30;;;;;;5038694;28;20213;-71
2023/05/22 09:11:27;;;;;;;9.45;4.70;;;25.30;93.20;;;;;;5050521;28;20177;-71
2023/05/22 09:14:06;;;;;;;8.15;4.05;;;25.00;93.90;;;;;;5042522;28;20185;-71
2023/05/22 09:16:32;;;;;;;8.15;4.25;;;25.20;93.30;;;;;;5034805;28;20183;-71
2023/05/22 09:18:58;;;;;;;10.90;4.25;;;25.30;94.40;;;;;;5039782;28;20529;-71
2023/05/22 09:21:28;;;;;;;10.20;5.22;;;26.00;92.30;;;;;;5034489;28;20200;-71
2023/05/22 09:23:57;;;;;;;7.07;4.63;;;25.90;92.60;;;;;;5049902;28;20176;-71
2023/05/22 09:26:27;;;;;;;6.53;3.97;;;26.30;92.30;;;;;;5050776;28;20173;-71
2023/05/22 09:28:53;;;;;;;11.82;6.00;;;26.50;91.60;;;;;;5044990;28;20181;-71
2023/05/22 09:31:19;;;;;;;6.70;4.38;;;26.20;91.90;;;;;;5043916;28;20181;-71
2023/05/22 09:33:44;;;;;;;10.07;4.57;;;26.10;92.30;;;;;;5041951;28;20185;-71
2023/05/22 09:36:10;;;;;;;12.93;4.97;;;26.00;93.20;;;;;;5050235;28;20181;-71
2023/05/22 09:38:36;;;;;;;9.75;5.07;;;26.30;92.00;;;;;;5050783;28;20760;-71
2023/05/22 09:41:02;;;;;;;10.48;4.35;;;26.40;91.60;;;;;;5036390;28;20660;-71
2023/05/22 09:43:27;;;;;;;6.38;4.10;;;26.60;91.10;;;;;;5039095;28;20224;-71
2023/05/22 09:46:00;;;;;;;8.15;4.38;;;27.00;90.70;;;;;;5044260;28;20178;-71
2023/05/22 09:48:25;;;;;;;7.97;4.78;;;26.60;92.20;;;;;;5049432;28;20718;-71
2023/05/22 09:50:53;;;;;;;11.32;6.03;;;26.70;91.20;;;;;;5037046;28;20264;-71
2023/05/22 09:53:24;;;;;;;10.52;5.15;;;26.60;90.90;;;;;;5037613;28;20178;-71
2023/05/22 09:55:50;;;;;;;11.43;4.88;;;26.60;91.70;;;;;;5036918;28;20314;-71
2023/05/22 09:58:18;;;;;;;7.80;5.03;;;26.20;91.50;;;;;;5050739;28;20205;-71
2023/05/22 10:00:45;;;;;;;7.78;4.40;;;26.30;91.10;;;;;;5024381;28;20184;-71
2023/05/22 10:03:11;;;;;;;9.02;4.50;;;26.50;90.90;;;;;;5034059;28;20190;-71
2023/05/22 10:05:40;;;;;;;13.77;4.80;;;26.60;90.40;;;;;;5044024;28;20188;-70
2023/05/22 10:08:12;;;;;;;8.23;5.22;;;26.90;89.40;;;;;;5050423;28;20216;-70
2023/05/22 10:10:41;;;;;;;6.65;4.28;;;26.40;90.40;;;;;;5043459;28;20642;-71
2023/05/22 10:13:07;;;;;;;7.80;4.38;;;26.60;90.20;;;;;;5043654;28;20732;-70
2023/05/22 10:15:37;;;;;;;9.27;4.90;;;26.30;91.80;;;;;;5039141;28;20209;-70
2023/05/22 10:18:03;;;;;;;11.00;6.18;;;26.20;93.00;;;;;;5047375;28;20197;-70
2023/05/22 10:20:29;;;;;;;7.13;4.25;;;26.20;90.90;;;;;;5035432;28;20235;-70
2023/05/22 10:22:55;;;;;;;7.40;4.80;;;26.10;91.30;;;;;;5045218;28;20190;-70
2023/05/22 10:25:21;;;;;;;9.30;4.73;;;26.00;91.20;;;;;;5040458;28;20181;-70
2023/05/22 10:27:50;;;;;;;7.10;3.77;;;25.90;91.70;;;;;;5046554;28;20196;-70
2023/05/22 10:30:16;;;;;;;10.03;5.33;;;25.90;92.10;;;;;;5050338;28;20208;-70
2023/05/22 10:33:03;;;;;;;9.63;5.27;;;25.90;90.80;;;;;;5037390;28;20213;-70
2023/05/22 10:35:42;;;;;;;15.40;5.30;;;25.80;91.00;;;;;;5022844;28;20188;-69
2023/05/22 10:38:28;;;;;;;8.10;4.60;;;25.60;92.20;;;;;;5038487;28;20204;-69
2023/05/22 10:40:55;;;;;;;7.53;4.80;;;25.60;92.20;;;;;;5046539;28;20177;-70
2023/05/22 10:43:22;;;;;;;7.13;4.43;;;25.90;91.40;;;;;;5042449;28;20420;-70
2023/05/22 10:45:48;;;;;;;8.53;4.20;;;25.80;91.60;;;;;;5047011;28;20664;-69
2023/05/22 10:48:14;;;;;;;9.33;4.97;;;25.90;91.50;;;;;;5026059;28;20209;-70
2023/05/22 10:50:51;;;;;;;9.00;4.47;;;25.90;92.10;;;;;;5026694;28;20174;-70
2023/05/22 10:53:30;;;;;;;8.27;5.07;;;26.20;91.10;;;;;;5025034;28;20913;-70
2023/05/22 10:55:57;;;;;;;7.20;4.50;;;26.20;91.00;;;;;;5025686;28;20507;-70
2023/05/22 10:58:31;;;;;;;13.97;5.13;;;26.00;91.10;;;;;;5027020;28;20515;-70
2023/05/22 11:01:12;;;;;;;8.17;4.57;;;26.00;91.30;;;;;;5025416;28;20420;-70
2023/05/22 11:03:50;;;;;;;14.67;5.60;;;26.10;91.40;;;;;;5024110;28;20908;-70
2023/05/22 11:06:47;;;;;;;6.20;3.87;;;26.00;90.30;;;;;;5033055;28;20726;-69
2023/05/22 11:09:32;;;;;;;9.33;4.80;;;26.00;90.00;;;;;;5012882;28;20741;-70
2023/05/22 11:12:15;;;;;;;8.63;5.03;;;25.80;91.80;;;;;;5040275;28;20411;-70
2023/05/22 11:14:41;;;;;;;9.17;4.47;;;25.80;90.50;;;;;;5053008;28;20889;-70
2023/05/22 11:17:07;;;;;;;9.10;4.47;;;25.80;90.50;;;;;;5053279;28;20754;-70
2023/05/22 11:19:33;;;;;;;8.90;4.80;;;25.90;90.20;;;;;;5037723;28;20277;-71
2023/05/22 11:22:00;;;;;;;10.63;4.90;;;25.90;90.30;;;;;;5041575;28;20227;-70
2023/05/22 11:24:32;;;;;;;19.13;5.07;;;26.00;90.00;;;;;;5052603;28;20685;-70
2023/05/22 11:27:04;;;;;;;7.03;3.60;;;25.80;90.30;;;;;;5052766;28;20927;-70
2023/05/22 11:29:30;;;;;;;7.00;4.00;;;25.90;90.80;;;;;;5033727;28;20428;-71
2023/05/22 11:31:57;;;;;;;9.90;4.40;;;26.10;88.00;;;;;;5042956;28;20312;-71
2023/05/22 11:34:24;;;;;;;8.30;3.53;;;26.10;85.80;;;;;;5045315;28;20244;-71
2023/05/22 11:36:51;;;;;;;7.37;4.33;;;26.30;87.90;;;;;;5043555;28;20208;-71
2023/05/22 11:39:17;;;;;;;6.87;3.53;;;26.20;88.60;;;;;;5052650;28;20181;-71
2023/05/22 11:41:42;;;;;;;8.97;4.60;;;26.30;89.60;;;;;;5036155;28;20276;-71
2023/05/22 11:44:08;;;;;;;13.57;5.00;;;26.50;87.30;;;;;;5045749;28;20177;-71
2023/05/22 11:46:34;;;;;;;7.20;4.70;;;26.40;87.70;;;;;;5042981;28;21083;-70
2023/05/22 11:49:01;;;;;;;8.47;4.27;;;26.30;88.60;;;;;;5039151;28;20185;-71
2023/05/22 11:51:27;;;;;;;8.87;4.07;;;26.10;89.40;;;;;;5048208;28;20185;-71
2023/05/22 11:53:54;;;;;;;8.93;4.70;;;26.10;89.90;;;;;;5049302;28;20184;-71
2023/05/22 11:56:22;;;;;;;5.37;3.83;;;26.20;87.10;;;;;;5034509;28;20202;-71
2023/05/22 11:58:49;;;;;;;7.67;4.43;;;26.30;89.30;;;;;;5024914;28;20210;-71
2023/05/22 12:01:15;;;;;;;8.03;4.17;;;26.40;87.90;;;;;;5035298;28;20216;-71
2023/05/22 12:03:40;;;;;;;10.27;4.70;;;26.40;86.10;;;;;;5028690;28;20209;-71
2023/05/22 12:06:07;;;;;;;8.37;5.13;;;26.60;86.20;;;;;;5042405;28;20186;-71
2023/05/22 12:08:33;;;;;;;5.50;3.47;;;26.60;87.60;;;;;;5034161;28;20740;-71
2023/05/22 12:10:59;;;;;;;6.80;4.37;;;26.70;88.80;;;;;;5034174;28;20825;-72
2023/05/22 12:13:26;;;;;;;10.67;4.80;;;27.10;87.30;;;;;;5045171;28;20202;-71
2023/05/22 12:15:54;;;;;;;8.10;4.23;;;26.80;86.90;;;;;;5035733;28;20183;-71
2023/05/22 12:18:20;;;;;;;9.97;4.70;;;26.80;87.20;;;;;;5046294;28;20288;-71
2023/05/22 12:20:46;;;;;;;8.43;4.53;;;26.80;88.80;;;;;;5043521;28;20260;-71
2023/05/22 12:23:32;;;;;;;9.73;4.57;;;26.60;89.50;;;;;;5050177;28;20265;-71
2023/05/22 12:26:07;;;;;;;12.00;4.57;;;26.50;87.10;;;;;;5051258;28;20201;-71
2023/05/22 12:28:33;;;;;;;6.60;4.20;;;26.40;88.10;;;;;;5051662;28;20234;-70
2023/05/22 12:30:59;;;;;;;9.97;5.37;;;26.60;90.90;;;;;;5049285;28;20185;-71
2023/05/22 12:33:28;;;;;;;9.50;5.07;;;27.00;87.60;;;;;;5040382;28;20173;-71
2023/05/22 12:35:57;;;;;;;8.50;4.37;;;27.40;85.40;;;;;;5037045;28;20212;-71
2023/05/22 12:38:25;;;;;;;8.48;4.88;;;27.40;89.70;;;;;;5051030;28;20247;-71
2023/05/22 12:40:51;;;;;;;7.00;3.78;;;27.60;84.60;;;;;;5046188;28;20228;-71
2023/05/22 12:43:17;;;;;;;9.32;4.38;;;27.70;83.30;;;;;;5041199;28;20174;-71